Archie, Louisiana
Current Conditions -  °F | °C
As of 4:53 AM on Thursday 27 Nov 2014 (Local Time) from KESF Reporting Station
Clear Clear  
Wind Chill: 44°   Ceiling: Unl
Heat Index: 47°   Visibility: 10mi
Dew Point: 32°   Wind: 7mph
Humidity: 56%   Direction: NA
Pressure: 30.39"   Gusts: NA
Location:  31.5028°N, 91.9028°W
Report Text: KESF 271053Z AUTO VRB06KT 10SM CLR 08/00 A3039 RMK AO2 SLP290 T00830000
Loading
Personal Weather Stations






























Interactive Weather Map New forecast layout! Learn more

10-Day Weather Forecast

Advertisements
Track Severe Weather on mobile